createdAt,value
2018-11-11T00:00:14.917Z,1.4
2018-11-11T00:01:05.264Z,1.4
2018-11-11T00:01:55.619Z,1.4
2018-11-11T00:02:45.626Z,1.4
2018-11-11T00:03:35.726Z,1.4
2018-11-11T00:04:25.308Z,1.4
2018-11-11T00:05:15.595Z,1.3
2018-11-11T00:06:05.652Z,1.3
2018-11-11T00:06:55.968Z,1.3
2018-11-11T00:25:04.525Z,1
2018-11-11T00:25:54.608Z,1
2018-11-11T00:26:44.391Z,1
2018-11-11T00:27:35.028Z,1
2018-11-11T00:28:25.216Z,1
2018-11-11T00:29:15.185Z,1
2018-11-11T00:30:04.903Z,0.9
2018-11-11T00:30:54.953Z,0.9
2018-11-11T00:31:44.727Z,0.9
2018-11-11T00:32:34.794Z,0.9
2018-11-11T00:33:25.127Z,0.9
2018-11-11T00:34:15.082Z,0.9
2018-11-11T00:35:05.258Z,0.9
2018-11-11T00:35:55.317Z,0.8
2018-11-11T00:36:45.361Z,0.8
2018-11-11T00:37:35.740Z,0.8
2018-11-11T00:38:25.222Z,0.8
2018-11-11T00:39:15.844Z,0.8
2018-11-11T00:40:05.327Z,0.8
2018-11-11T00:40:55.385Z,0.8
2018-11-11T00:41:45.744Z,0.8
2018-11-11T00:42:35.812Z,0.8
2018-11-11T00:43:25.862Z,0.7
2018-11-11T00:44:15.676Z,0.7
2018-11-11T00:45:05.996Z,0.7
2018-11-11T00:45:56.299Z,0.7
2018-11-11T00:46:46.402Z,0.6
2018-11-11T00:47:36.168Z,0.6
2018-11-11T00:48:26.231Z,0.6
2018-11-11T00:49:16.550Z,0.6
2018-11-11T00:50:06.629Z,0.6
2018-11-11T00:50:56.631Z,0.6
2018-11-11T00:51:46.444Z,0.6
2018-11-11T00:52:36.409Z,0.6
2018-11-11T00:53:26.296Z,0.5
2018-11-11T00:54:16.344Z,0.5
2018-11-11T00:55:06.718Z,0.5
2018-11-11T00:55:57.016Z,0.5
2018-11-11T00:56:46.813Z,0.5
2018-11-11T00:57:36.883Z,0.5
2018-11-11T00:58:26.940Z,0.4
2018-11-11T00:59:16.990Z,0.4
2018-11-11T01:00:07.053Z,0.4
2018-11-11T01:00:57.089Z,0.4
2018-11-11T01:01:47.465Z,0.4
2018-11-11T01:02:37.223Z,0.4
2018-11-11T01:03:27.571Z,0.4
2018-11-11T01:04:17.660Z,0.4
2018-11-11T01:05:07.694Z,0.4
2018-11-11T01:05:57.760Z,0.3
2018-11-11T01:06:47.535Z,0.3
2018-11-11T01:07:37.875Z,0.3
2018-11-11T01:08:27.640Z,0.3
2018-11-11T01:09:18.005Z,0.3
2018-11-11T01:10:08.282Z,0.3
2018-11-11T01:10:57.825Z,0.3
2018-11-11T01:11:47.897Z,0.3
2018-11-11T01:12:37.960Z,0.3
2018-11-11T01:13:28.005Z,0.3
2018-11-11T01:14:18.065Z,0.2
2018-11-11T01:15:07.860Z,0.2
2018-11-11T01:15:58.180Z,0.2
2018-11-11T01:16:48.050Z,0.2
2018-11-11T01:17:38.590Z,0.2
2018-11-11T01:18:28.372Z,0.1
2018-11-11T01:19:18.160Z,0.1
2018-11-11T01:20:08.502Z,0.1
2018-11-11T01:20:58.837Z,0.1
2018-11-11T01:21:48.916Z,0.1
2018-11-11T01:22:38.672Z,0.1
2018-11-11T01:23:28.772Z,0.1
2018-11-11T01:24:18.512Z,0.1
2018-11-11T01:25:08.844Z,0.1
2018-11-11T01:25:58.939Z,0.1
2018-11-11T01:26:48.937Z,0
2018-11-11T01:27:39.048Z,0
2018-11-11T01:28:29.364Z,0
2018-11-11T01:29:19.208Z,-0.1
2018-11-11T01:30:09.234Z,-0.1
2018-11-11T01:30:59.574Z,-0.1
2018-11-11T01:31:49.336Z,-0.1
2018-11-11T01:32:39.701Z,-0.1
2018-11-11T01:33:29.259Z,-0.1
2018-11-11T01:34:19.224Z,-0.1
2018-11-11T01:35:09.289Z,-0.1
2018-11-11T01:35:59.929Z,-0.1
2018-11-11T01:36:49.998Z,-0.1
2018-11-11T01:37:39.749Z,-0.2
2018-11-11T01:38:30.282Z,-0.2
2018-11-11T01:39:19.983Z,-0.2
2018-11-11T01:40:09.941Z,-0.3
2018-11-11T01:41:00.007Z,-0.3
2018-11-11T01:41:50.036Z,-0.3
2018-11-11T01:42:40.399Z,-0.3
2018-11-11T01:43:30.200Z,-0.3
2018-11-11T01:44:20.286Z,-0.3
2018-11-11T01:45:10.586Z,-0.3
2018-11-11T01:46:00.073Z,-0.3
2018-11-11T01:46:50.703Z,-0.3
2018-11-11T01:47:40.188Z,-0.3
2018-11-11T01:48:30.243Z,-0.3
2018-11-11T01:49:20.593Z,-0.3
2018-11-11T01:50:10.936Z,-0.3
2018-11-11T01:51:00.985Z,-0.3
2018-11-11T01:51:51.079Z,-0.3
2018-11-11T01:52:40.835Z,-0.4
2018-11-11T01:53:30.610Z,-0.4
2018-11-11T01:54:20.953Z,-0.3
2018-11-11T01:55:11.018Z,-0.4
2018-11-11T01:56:01.082Z,-0.4
2018-11-11T01:56:50.935Z,-0.4
2018-11-11T01:57:41.286Z,-0.4
2018-11-11T01:58:31.275Z,-0.4
2018-11-11T01:59:21.322Z,-0.4
2018-11-11T02:00:10.981Z,-0.4
2018-11-11T02:01:01.733Z,-0.4
2018-11-11T02:01:51.289Z,-0.4
2018-11-11T02:02:41.549Z,-0.4
2018-11-11T02:03:31.331Z,-0.4
2018-11-11T02:04:21.952Z,-0.4
2018-11-11T02:05:11.457Z,-0.4
2018-11-11T02:06:01.507Z,-0.4
2018-11-11T02:06:51.862Z,-0.4
2018-11-11T02:07:41.629Z,-0.5
2018-11-11T02:08:32.517Z,-0.5
2018-11-11T02:09:21.749Z,-0.4
2018-11-11T02:10:12.097Z,-0.4
2018-11-11T02:11:02.163Z,-0.5
2018-11-11T02:11:52.022Z,-0.5
2018-11-11T02:12:42.554Z,-0.5
2018-11-11T02:13:32.136Z,-0.5
2018-11-11T02:14:22.691Z,-0.5
2018-11-11T02:15:11.883Z,-0.5
2018-11-11T02:16:02.523Z,-0.5
2018-11-11T02:16:52.864Z,-0.5
2018-11-11T02:17:42.889Z,-0.5
2018-11-11T02:18:32.756Z,-0.5
2018-11-11T02:19:23.056Z,-0.6
2018-11-11T02:20:13.132Z,-0.5
2018-11-11T02:21:02.979Z,-0.5
2018-11-11T02:21:53.217Z,-0.6
2018-11-11T02:22:43.283Z,-0.5
2018-11-11T02:23:33.326Z,-0.6
2018-11-11T02:24:23.104Z,-0.6
2018-11-11T02:25:12.878Z,-0.6
2018-11-11T02:26:03.026Z,-0.6
2018-11-11T02:26:53.569Z,-0.6
2018-11-11T02:27:42.881Z,-0.6
2018-11-11T02:28:32.936Z,-0.6
2018-11-11T02:29:23.178Z,-0.6
2018-11-11T02:30:13.335Z,-0.6
2018-11-11T02:31:03.866Z,-0.6
2018-11-11T02:31:53.450Z,-0.6
2018-11-11T02:32:43.421Z,-0.6
2018-11-11T02:33:33.010Z,-0.6
2018-11-11T02:34:23.550Z,-0.6
2018-11-11T02:35:13.409Z,-0.6
2018-11-11T02:36:03.478Z,-0.6
2018-11-11T02:36:53.605Z,-0.6
2018-11-11T02:37:44.701Z,-0.6
2018-11-11T02:38:33.363Z,-0.6
2018-11-11T02:39:23.985Z,-0.6
2018-11-11T02:40:13.768Z,-0.6
2018-11-11T02:41:03.820Z,-0.6
2018-11-11T02:41:54.183Z,-0.6
2018-11-11T02:42:43.962Z,-0.7
2018-11-11T02:43:34.260Z,-0.6
2018-11-11T02:44:24.354Z,-0.6
2018-11-11T02:45:14.409Z,-0.6
2018-11-11T02:46:04.174Z,-0.7
2018-11-11T02:46:54.541Z,-0.6
2018-11-11T02:47:44.317Z,-0.6
2018-11-11T02:48:34.669Z,-0.6
2018-11-11T02:49:24.425Z,-0.7
2018-11-11T02:50:14.204Z,-0.7
2018-11-11T02:51:04.803Z,-0.7
2018-11-11T02:51:54.610Z,-0.7
2018-11-11T02:52:44.670Z,-0.7
2018-11-11T02:53:34.685Z,-0.7
2018-11-11T02:54:24.802Z,-0.7
2018-11-11T02:55:15.129Z,-0.8
2018-11-11T02:56:04.917Z,-0.8
2018-11-11T02:56:55.212Z,-0.8
2018-11-11T02:57:44.746Z,-0.8
2018-11-11T02:58:35.346Z,-0.8
2018-11-11T02:59:25.139Z,-0.8
2018-11-11T03:00:14.925Z,-0.8
2018-11-11T03:01:05.544Z,-0.8
2018-11-11T03:01:55.321Z,-0.8
2018-11-11T03:02:45.689Z,-0.8
2018-11-11T03:03:35.447Z,-0.8
2018-11-11T03:04:26.231Z,-0.8
2018-11-11T03:05:15.866Z,-0.8
2018-11-11T03:06:05.631Z,-0.8
2018-11-11T03:06:55.674Z,-0.8
2018-11-11T03:07:46.056Z,-0.8
2018-11-11T03:08:35.825Z,-0.8
2018-11-11T03:09:26.937Z,-0.8
2018-11-11T03:10:16.728Z,-0.8
2018-11-11T03:11:06.456Z,-0.9
2018-11-11T03:11:56.831Z,-0.9
2018-11-11T03:12:46.398Z,-0.8
2018-11-11T03:13:36.439Z,-0.9
2018-11-11T03:14:27.021Z,-0.9
2018-11-11T03:15:16.553Z,-0.9
2018-11-11T03:16:06.637Z,-0.9
2018-11-11T03:16:57.179Z,-0.9
2018-11-11T03:17:46.762Z,-0.9
2018-11-11T03:18:37.025Z,-0.9
2018-11-11T03:19:27.060Z,-0.9
2018-11-11T03:20:17.435Z,-0.9
2018-11-11T03:21:06.967Z,-0.9
2018-11-11T03:23:37.666Z,-0.9
2018-11-11T03:31:07.905Z,-1
2018-11-11T03:31:58.283Z,-1
2018-11-11T03:32:48.329Z,-1
2018-11-11T03:33:38.373Z,-1
2018-11-11T03:34:28.482Z,-1
2018-11-11T03:35:17.921Z,-1
2018-11-11T03:36:08.265Z,-1
2018-11-11T03:36:58.569Z,-1
2018-11-11T03:37:48.677Z,-1
2018-11-11T03:38:38.157Z,-1
2018-11-11T03:39:28.806Z,-1
2018-11-11T03:40:18.283Z,-1
2018-11-11T03:41:08.624Z,-1
2018-11-11T03:41:58.381Z,-1
2018-11-11T03:42:49.018Z,-1.1
2018-11-11T03:43:38.788Z,-1.1
2018-11-11T03:44:28.571Z,-1.1
2018-11-11T03:45:19.486Z,-1.1
2018-11-11T03:46:08.986Z,-1.1
2018-11-11T03:46:59.034Z,-1.1
2018-11-11T03:47:49.188Z,-1.1
2018-11-11T03:48:39.251Z,-1.1
2018-11-11T03:49:29.233Z,-1.1
2018-11-11T03:50:18.999Z,-1.1
2018-11-11T03:51:09.135Z,-1.1
2018-11-11T03:51:59.411Z,-1.1
2018-11-11T03:52:49.755Z,-1.1
2018-11-11T03:53:39.232Z,-1.2
2018-11-11T03:54:29.585Z,-1.2
2018-11-11T03:55:19.916Z,-1.2
2018-11-11T03:56:09.972Z,-1.2
2018-11-11T03:57:00.048Z,-1.2
2018-11-11T03:57:50.103Z,-1.2
2018-11-11T03:58:40.126Z,-1.2
2018-11-11T03:59:29.948Z,-1.2
2018-11-11T04:00:20.275Z,-1.2
2018-11-11T04:01:10.056Z,-1.2
2018-11-11T04:02:00.130Z,-1.3
2018-11-11T04:02:50.466Z,-1.3
2018-11-11T04:03:40.508Z,-1.3
2018-11-11T04:04:30.291Z,-1.3
2018-11-11T04:05:20.067Z,-1.2
2018-11-11T04:06:10.943Z,-1.3
2018-11-11T04:07:00.779Z,-1.3
2018-11-11T04:07:50.568Z,-1.3
2018-11-11T04:08:40.605Z,-1.3
2018-11-11T04:09:30.643Z,-1.3
2018-11-11T04:10:21.532Z,-1.3
2018-11-11T04:11:11.045Z,-1.3
2018-11-11T04:12:00.840Z,-1.3
2018-11-11T04:12:51.187Z,-1.3
2018-11-11T04:13:40.974Z,-1.3
2018-11-11T04:14:30.732Z,-1.3
2018-11-11T04:15:21.086Z,-1.3
2018-11-11T04:16:11.122Z,-1.3
2018-11-11T04:17:01.288Z,-1.3
2018-11-11T04:17:51.264Z,-1.4
2018-11-11T04:18:41.584Z,-1.4
2018-11-11T04:19:31.474Z,-1.4
2018-11-11T04:20:21.738Z,-1.4
2018-11-11T04:21:11.502Z,-1.4
2018-11-11T04:22:01.820Z,-1.4
2018-11-11T04:22:51.639Z,-1.4
2018-11-11T04:23:42.211Z,-1.4
2018-11-11T04:24:31.744Z,-1.4
2018-11-11T04:25:22.079Z,-1.4
2018-11-11T04:26:11.574Z,-1.4
2018-11-11T04:27:02.215Z,-1.4
2018-11-11T04:27:52.046Z,-1.4
2018-11-11T04:28:42.349Z,-1.4
2018-11-11T04:29:32.111Z,-1.5
2018-11-11T04:30:22.164Z,-1.5
2018-11-11T04:31:12.718Z,-1.5
2018-11-11T04:32:02.572Z,-1.5
2018-11-11T04:32:52.607Z,-1.5
2018-11-11T04:33:42.678Z,-1.6
2018-11-11T04:34:32.754Z,-1.6
2018-11-11T04:35:22.516Z,-1.5
2018-11-11T04:36:12.571Z,-1.6
2018-11-11T04:54:15.831Z,-1.8
2018-11-11T04:55:05.955Z,-1.8
2018-11-11T04:55:55.929Z,-1.8
2018-11-11T04:56:45.995Z,-1.9
2018-11-11T04:57:36.051Z,-1.9
2018-11-11T04:58:25.844Z,-1.8
2018-11-11T04:59:15.878Z,-1.8
2018-11-11T05:00:05.726Z,-1.9
2018-11-11T05:00:56.291Z,-1.9
2018-11-11T05:01:46.065Z,-1.9
2018-11-11T05:02:36.113Z,-1.9
2018-11-11T05:03:26.160Z,-1.9
2018-11-11T05:04:16.531Z,-1.9
2018-11-11T05:05:06.551Z,-1.9
2018-11-11T05:05:56.368Z,-1.9
2018-11-11T05:06:46.697Z,-1.9
2018-11-11T05:07:36.755Z,-2
2018-11-11T05:08:26.528Z,-2
2018-11-11T05:09:16.862Z,-2
2018-11-11T05:10:06.963Z,-2
2018-11-11T05:10:56.716Z,-2
2018-11-11T05:11:46.760Z,-2
2018-11-11T05:12:36.810Z,-2
2018-11-11T05:13:26.307Z,-2
2018-11-11T05:14:16.965Z,-2
2018-11-11T05:15:06.679Z,-2.1
2018-11-11T05:15:56.782Z,-2.1
2018-11-11T05:16:47.124Z,-2.1
2018-11-11T05:17:37.458Z,-2.1
2018-11-11T05:18:27.140Z,-2.1
2018-11-11T05:19:17.607Z,-2.1
2018-11-11T05:20:07.426Z,-2.1
2018-11-11T05:20:57.387Z,-2.1
2018-11-11T05:21:47.633Z,-2.1
2018-11-11T05:22:37.542Z,-2.1
2018-11-11T05:23:27.599Z,-2.1
2018-11-11T05:24:17.945Z,-2.1
2018-11-11T05:25:07.424Z,-2.1
2018-11-11T05:25:58.040Z,-2.1
2018-11-11T05:26:47.831Z,-2.1
2018-11-11T05:27:38.184Z,-2.1
2018-11-11T05:28:27.944Z,-2.1
2018-11-11T05:29:18.301Z,-2.1
2018-11-11T05:30:07.782Z,-2.1
2018-11-11T05:30:58.193Z,-2.1
2018-11-11T05:31:48.193Z,-2.1
2018-11-11T05:32:38.546Z,-2
2018-11-11T05:33:28.027Z,-2.1
2018-11-11T05:34:18.661Z,-2
2018-11-11T05:35:08.443Z,-2
2018-11-11T05:35:58.189Z,-2
2018-11-11T05:36:48.851Z,-2
2018-11-11T05:37:38.624Z,-2
2018-11-11T05:38:28.680Z,-2
2018-11-11T05:39:18.444Z,-2
2018-11-11T05:40:08.804Z,-2
2018-11-11T05:40:59.649Z,-1.9
2018-11-11T05:41:48.933Z,-1.9
2018-11-11T05:42:38.956Z,-1.9
2018-11-11T05:43:29.340Z,-1.9
2018-11-11T05:44:19.092Z,-1.9
2018-11-11T05:45:09.143Z,-1.9
2018-11-11T05:45:59.203Z,-1.9
2018-11-11T05:46:49.073Z,-1.9
2018-11-11T05:47:39.338Z,-1.8
2018-11-11T05:48:29.085Z,-1.8
2018-11-11T05:49:18.960Z,-1.8
2018-11-11T05:50:09.303Z,-1.8
2018-11-11T05:51:00.344Z,-1.8
2018-11-11T05:51:49.630Z,-1.8
2018-11-11T05:52:40.013Z,-1.7
2018-11-11T05:53:30.028Z,-1.7
2018-11-11T05:54:19.816Z,-1.7
2018-11-11T05:55:10.150Z,-1.6
2018-11-11T05:56:00.499Z,-1.6
2018-11-11T05:56:50.287Z,-1.6
2018-11-11T05:57:40.031Z,-1.6
2018-11-11T05:58:30.450Z,-1.5
2018-11-11T05:59:19.966Z,-1.5
2018-11-11T06:00:10.500Z,-1.4
2018-11-11T06:01:00.087Z,-1.4
2018-11-11T06:01:50.613Z,-1.4
2018-11-11T06:02:40.107Z,-1.3
2018-11-11T06:03:30.457Z,-1.3
2018-11-11T06:04:20.510Z,-1.3
2018-11-11T06:05:10.289Z,-1.2
2018-11-11T06:06:01.175Z,-1.1
2018-11-11T06:06:50.458Z,-1.1
2018-11-11T06:07:40.553Z,-1.1
2018-11-11T06:08:31.300Z,-1.1
2018-11-11T06:09:20.861Z,-1
2018-11-11T06:11:00.979Z,-0.9
2018-11-11T06:11:51.334Z,-0.8
2018-11-11T06:12:41.404Z,-0.8
2018-11-11T06:13:30.886Z,-0.7
2018-11-11T06:14:21.224Z,-0.7
2018-11-11T06:15:11.374Z,-0.6
2018-11-11T06:16:01.149Z,-0.5
2018-11-11T06:16:51.667Z,-0.4
2018-11-11T06:17:41.747Z,-0.4
2018-11-11T06:18:31.806Z,-0.3
2018-11-11T06:19:21.301Z,-0.3
2018-11-11T06:20:11.926Z,-0.2
2018-11-11T06:21:01.712Z,-0.1
2018-11-11T06:21:52.293Z,0
2018-11-11T06:22:41.904Z,0.1
2018-11-11T06:23:31.881Z,0.2
2018-11-11T06:24:21.928Z,0.3
2018-11-11T06:25:11.993Z,0.4
2018-11-11T06:26:02.371Z,0.4
2018-11-11T06:26:51.925Z,0.6
2018-11-11T06:27:42.293Z,0.7
2018-11-11T06:28:32.241Z,0.8
2018-11-11T06:29:22.301Z,0.9
2018-11-11T06:30:12.655Z,1
2018-11-11T06:31:02.719Z,1.1
2018-11-11T06:31:52.748Z,1.3
2018-11-11T06:32:42.225Z,1.4
2018-11-11T06:33:32.876Z,1.5
2018-11-11T06:34:22.749Z,1.6
2018-11-11T06:35:13.000Z,1.8
2018-11-11T06:36:02.780Z,1.9
2018-11-11T06:36:52.847Z,2.1
2018-11-11T06:37:42.306Z,2.2
2018-11-11T06:38:33.225Z,2.4
2018-11-11T06:39:23.000Z,2.5
2018-11-11T06:40:12.575Z,2.7
2018-11-11T06:41:02.830Z,2.8
2018-11-11T06:41:53.174Z,3
2018-11-11T06:42:43.540Z,3.3
2018-11-11T06:43:33.018Z,3.4
2018-11-11T06:44:23.364Z,3.6
2018-11-11T06:45:13.703Z,3.8
2018-11-11T06:46:03.481Z,4
2018-11-11T06:46:53.530Z,4.2
2018-11-11T06:47:43.309Z,4.4
2018-11-11T06:48:33.655Z,4.6
2018-11-11T06:49:23.436Z,4.9
2018-11-11T06:50:14.074Z,5.1
2018-11-11T06:51:04.109Z,5.3
2018-11-11T06:51:53.616Z,5.6
2018-11-11T06:52:44.242Z,5.8
2018-11-11T06:53:34.007Z,6
2018-11-11T06:54:24.354Z,6.3
2018-11-11T06:55:13.929Z,6.5
2018-11-11T06:56:03.609Z,6.8
2018-11-11T06:56:53.974Z,7.1
2018-11-11T06:57:44.271Z,4.3
2018-11-11T06:58:34.874Z,11.1
2018-11-11T06:59:24.726Z,23
2018-11-11T07:00:13.911Z,24.9
2018-11-11T07:01:04.844Z,27.6
2018-11-11T07:01:54.609Z,29.1
2018-11-11T07:02:44.953Z,29.4
2018-11-11T07:03:34.429Z,29.4
2018-11-11T07:04:25.070Z,29.3
2018-11-11T07:05:14.552Z,28.9
2018-11-11T07:06:04.714Z,28.6
2018-11-11T07:06:54.971Z,28.4
2018-11-11T07:07:45.267Z,28.2
2018-11-11T07:08:35.411Z,28
2018-11-11T07:09:24.948Z,27.9
2018-11-11T07:10:15.503Z,27.8
2018-11-11T07:11:05.558Z,27.6
2018-11-11T07:11:55.133Z,27.5
2018-11-11T07:12:45.673Z,27.4
2018-11-11T07:13:35.725Z,27.3
2018-11-11T07:14:25.305Z,27.3
2018-11-11T07:15:15.363Z,28
2018-11-11T07:16:05.623Z,28.6
2018-11-11T07:16:55.678Z,28.8
2018-11-11T07:17:45.540Z,28.7
2018-11-11T07:18:35.793Z,30.9
2018-11-11T07:19:25.273Z,33.4
2018-11-11T07:20:15.900Z,34.2
2018-11-11T07:21:05.970Z,33.8
2018-11-11T07:21:56.315Z,32.8
2018-11-11T07:22:46.330Z,32.3
2018-11-11T07:23:35.957Z,32.1
2018-11-11T07:24:26.208Z,32.3
2018-11-11T07:25:16.553Z,32.7
2018-11-11T07:26:06.315Z,33.1
2018-11-11T07:26:56.679Z,33.1
2018-11-11T07:27:47.004Z,33
2018-11-11T07:28:36.217Z,32.9
2018-11-11T07:29:26.863Z,33
2018-11-11T07:30:16.436Z,33.1
2018-11-11T07:31:06.970Z,33.3
2018-11-11T07:31:56.747Z,33.4
2018-11-11T07:32:46.808Z,33.6
2018-11-11T07:33:37.204Z,33.7
2018-11-11T07:34:26.730Z,33.8
2018-11-11T07:35:17.254Z,33.9
2018-11-11T07:36:07.335Z,34
2018-11-11T07:36:57.387Z,34.1
2018-11-11T07:37:47.409Z,34.3
2018-11-11T07:38:36.637Z,34.4
2018-11-11T07:39:26.986Z,34.6
2018-11-11T07:40:17.355Z,34.8
2018-11-11T07:41:07.402Z,34.9
2018-11-11T07:41:57.732Z,35.1
2018-11-11T07:42:47.519Z,35.3
2018-11-11T07:43:37.628Z,35.6
2018-11-11T07:44:27.444Z,35.8
2018-11-11T07:45:17.416Z,35.9
2018-11-11T07:46:07.753Z,36.1
2018-11-11T07:46:58.119Z,36.3
2018-11-11T07:47:48.568Z,36.4
2018-11-11T07:48:37.726Z,36.7
2018-11-11T07:49:27.996Z,36.9
2018-11-11T07:50:18.074Z,37.1
2018-11-11T07:51:08.109Z,37.3
2018-11-11T07:51:58.258Z,37.4
2018-11-11T07:52:48.513Z,37.7
2018-11-11T07:53:38.325Z,37.9
2018-11-11T07:54:28.347Z,38.1
2018-11-11T07:55:18.846Z,38.3
2018-11-11T07:56:08.266Z,38.4
2018-11-11T07:56:58.528Z,38.6
2018-11-11T07:57:48.573Z,38.8
2018-11-11T07:58:38.841Z,39
2018-11-11T07:59:28.708Z,39.2
2018-11-11T08:00:18.782Z,39.3
2018-11-11T08:01:08.533Z,39.5
2018-11-11T08:01:58.680Z,39.7
2018-11-11T08:02:48.935Z,39.9
2018-11-11T08:03:38.728Z,40
2018-11-11T08:04:29.023Z,40.2
2018-11-11T08:05:18.837Z,40.3
2018-11-11T08:06:08.900Z,40.5
2018-11-11T08:06:59.242Z,40.7
2018-11-11T08:07:49.307Z,40.9
2018-11-11T08:08:39.370Z,41
2018-11-11T08:09:29.428Z,41.2
2018-11-11T08:10:19.496Z,41.4
2018-11-11T08:11:10.154Z,41.6
2018-11-11T08:11:59.612Z,41.7
2018-11-11T08:12:49.659Z,41.9
2018-11-11T08:13:39.729Z,42.1
2018-11-11T08:14:29.782Z,42.3
2018-11-11T08:15:19.838Z,42.4
2018-11-11T08:16:10.199Z,42.6
2018-11-11T08:16:59.769Z,42.8
2018-11-11T08:17:50.302Z,42.9
2018-11-11T08:18:39.786Z,43.1
2018-11-11T08:19:30.121Z,43.3
2018-11-11T08:20:20.184Z,43.4
2018-11-11T08:21:10.558Z,43.6
2018-11-11T08:22:00.621Z,43.8
2018-11-11T08:22:50.654Z,43.9
2018-11-11T08:23:40.437Z,44.1
2018-11-11T08:24:30.499Z,44.3
2018-11-11T08:25:20.936Z,44.4
2018-11-11T08:26:10.125Z,44.6
2018-11-11T08:27:00.186Z,44.8
2018-11-11T08:27:50.737Z,44.9
2018-11-11T08:28:40.804Z,45.1
2018-11-11T08:29:30.852Z,45.3
2018-11-11T08:30:20.426Z,45.4
2018-11-11T08:31:11.266Z,45.6
2018-11-11T08:32:01.140Z,45.8
2018-11-11T08:32:51.380Z,45.9
2018-11-11T08:33:40.868Z,46.1
2018-11-11T08:34:31.475Z,46.3
2018-11-11T08:35:21.283Z,46.4
2018-11-11T08:36:11.633Z,46.6
2018-11-11T08:37:01.101Z,46.8
2018-11-11T08:37:51.738Z,46.9
2018-11-11T08:38:41.798Z,47.1
2018-11-11T08:39:31.567Z,47.3
2018-11-11T08:40:21.693Z,47.4
2018-11-11T08:41:11.494Z,47.6
2018-11-11T08:42:01.748Z,47.7
2018-11-11T08:42:51.852Z,47.9
2018-11-11T08:43:41.851Z,48.1
2018-11-11T08:44:31.920Z,48.2
2018-11-11T08:45:21.973Z,48.4
2018-11-11T08:46:12.048Z,48.6
2018-11-11T08:47:01.998Z,48.7
2018-11-11T08:47:52.449Z,48.8
2018-11-11T08:48:42.512Z,49
2018-11-11T08:49:32.527Z,49.1
2018-11-11T08:50:22.349Z,49.3
2018-11-11T08:51:12.407Z,49.4
2018-11-11T08:52:02.749Z,49.6
2018-11-11T09:08:43.600Z,52.1
2018-11-11T09:09:33.374Z,52.3
2018-11-11T09:10:24.216Z,52.4
2018-11-11T09:11:13.882Z,52.6
2018-11-11T09:12:03.240Z,52.7
2018-11-11T09:12:53.583Z,52.8
2018-11-11T09:13:43.646Z,52.9
2018-11-11T09:14:33.981Z,53.1
2018-11-11T09:15:23.671Z,53.2
2018-11-11T09:16:14.119Z,53.3
2018-11-11T09:17:04.178Z,53.4
2018-11-11T09:17:54.253Z,53.6
2018-11-11T09:18:44.286Z,53.6
2018-11-11T09:19:34.346Z,53.8
2018-11-11T09:20:24.401Z,53.9
2018-11-11T09:21:14.304Z,53.9
2018-11-11T09:22:04.528Z,54.1
2018-11-11T09:22:54.018Z,54.2
2018-11-11T09:23:44.460Z,54.3
2018-11-11T09:24:34.145Z,54.4
2018-11-11T09:25:24.976Z,54.5
2018-11-11T09:26:14.539Z,54.6
2018-11-11T09:27:04.895Z,54.7
2018-11-11T09:27:54.993Z,54.8
2018-11-11T09:28:44.723Z,54.9
2018-11-11T09:29:35.625Z,55
2018-11-11T09:30:25.456Z,55.1
2018-11-11T09:31:14.920Z,55.1
2018-11-11T09:32:04.700Z,55.2
2018-11-11T09:32:55.297Z,55.3
2018-11-11T09:33:44.885Z,55.4
2018-11-11T09:34:35.455Z,55.5
2018-11-11T09:35:25.749Z,55.6
2018-11-11T09:36:15.292Z,55.7
2018-11-11T09:37:05.332Z,55.8
2018-11-11T09:37:55.385Z,55.8
2018-11-11T09:38:45.493Z,55.8
2018-11-11T09:39:35.804Z,55.9
2018-11-11T09:40:25.564Z,56
2018-11-11T09:41:15.932Z,56.1
2018-11-11T09:42:05.712Z,56.2
2018-11-11T09:42:55.757Z,56.3
2018-11-11T09:43:45.817Z,56.4
2018-11-11T09:44:35.687Z,56.4
2018-11-11T09:45:26.209Z,56.5
2018-11-11T09:46:16.312Z,56.6
2018-11-11T09:47:06.357Z,56.7
2018-11-11T09:47:56.415Z,56.8
2018-11-11T09:48:46.161Z,56.8
2018-11-11T09:49:36.217Z,56.9
2018-11-11T09:50:26.294Z,56.9
2018-11-11T09:51:16.350Z,57.1
2018-11-11T09:52:05.924Z,57.1
2018-11-11T09:52:56.179Z,57.1
2018-11-11T09:53:46.521Z,57.3
2018-11-11T09:54:36.883Z,57.3
2018-11-11T09:55:26.640Z,57.4
2018-11-11T09:56:16.729Z,57.4
2018-11-11T09:57:07.044Z,57.5
2018-11-11T09:57:57.139Z,57.6
2018-11-11T09:58:47.393Z,57.6
2018-11-11T09:59:37.017Z,57.4
2018-11-11T10:00:27.315Z,57.1
2018-11-11T10:01:17.372Z,57.1
2018-11-11T10:02:06.854Z,57.1
2018-11-11T10:02:57.479Z,57.3
2018-11-11T10:03:47.047Z,57.3
2018-11-11T10:04:37.594Z,57.4
2018-11-11T10:05:27.653Z,57.5
2018-11-11T10:06:17.559Z,57.6
2018-11-11T10:07:07.952Z,57.6
2018-11-11T10:07:57.266Z,57.7
2018-11-11T10:08:47.452Z,57.8
2018-11-11T10:09:37.395Z,57.9
2018-11-11T10:10:27.725Z,57.9
2018-11-11T10:11:18.092Z,58.1
2018-11-11T10:12:07.883Z,58.1
2018-11-11T10:12:57.639Z,58.2
2018-11-11T10:13:47.399Z,58.3
2018-11-11T10:14:37.751Z,58.3
2018-11-11T10:15:27.808Z,58.4
2018-11-11T10:16:18.142Z,58.4
2018-11-11T10:17:58.073Z,58.6
2018-11-11T10:18:48.146Z,58.8
2018-11-11T10:19:38.105Z,58.8
2018-11-11T10:20:28.848Z,58.9
2018-11-11T10:21:18.789Z,58.9
2018-11-11T10:22:08.846Z,59.1
2018-11-11T10:22:58.928Z,59.1
2018-11-11T10:23:48.996Z,59.3
2018-11-11T10:24:38.478Z,59.3
2018-11-11T10:25:28.528Z,59.3
2018-11-11T10:26:18.888Z,59.4
2018-11-11T10:27:09.379Z,59.4
2018-11-11T10:27:58.510Z,59.5
2018-11-11T10:28:49.042Z,59.6
2018-11-11T10:29:38.960Z,59.7
2018-11-11T10:30:28.983Z,59.8
2018-11-11T10:31:19.241Z,59.8
2018-11-11T10:32:09.023Z,59.9
2018-11-11T10:32:59.676Z,59.9
2018-11-11T10:33:49.726Z,60
2018-11-11T10:34:39.480Z,60.1
2018-11-11T10:35:29.828Z,60.2
2018-11-11T10:36:19.566Z,60.3
2018-11-11T10:37:09.124Z,60.3
2018-11-11T10:37:59.730Z,60.4
2018-11-11T10:38:49.505Z,60.4
2018-11-11T10:39:40.130Z,60.4
2018-11-11T10:40:30.223Z,60.5
2018-11-11T10:41:19.978Z,60.6
2018-11-11T10:42:10.310Z,60.6
2018-11-11T10:43:00.373Z,60.7
2018-11-11T10:43:49.862Z,60.8
2018-11-11T10:44:40.158Z,60.8
2018-11-11T10:45:29.984Z,60.9
2018-11-11T10:46:20.617Z,60.9
2018-11-11T10:47:10.670Z,61
2018-11-11T10:48:00.447Z,61.1
2018-11-11T10:48:50.505Z,60.9
2018-11-11T10:49:40.574Z,60.7
2018-11-11T10:50:30.329Z,60.6
2018-11-11T10:51:20.970Z,60.6
2018-11-11T10:52:10.752Z,60.7
2018-11-11T10:53:01.098Z,60.8
2018-11-11T10:53:51.132Z,60.8
2018-11-11T10:54:41.209Z,60.9
2018-11-11T10:55:31.274Z,60.9
2018-11-11T10:56:20.747Z,61
2018-11-11T10:57:11.113Z,61
2018-11-11T10:58:01.160Z,61.1
2018-11-11T10:58:51.231Z,61.2
2018-11-11T10:59:41.572Z,61.3
2018-11-11T11:00:30.769Z,61.3
2018-11-11T11:01:21.224Z,61.4
2018-11-11T11:02:11.486Z,61.4
2018-11-11T11:03:01.518Z,61.5
2018-11-11T11:03:51.310Z,61.5
2018-11-11T11:04:41.374Z,61.6
2018-11-11T11:05:31.993Z,61.6
2018-11-11T11:06:22.056Z,61.7
2018-11-11T11:07:12.122Z,61.8
2018-11-11T11:08:01.986Z,61.8
2018-11-11T11:08:51.680Z,61.8
2018-11-11T11:09:41.738Z,61.7
2018-11-11T11:10:32.376Z,61.6
2018-11-11T11:11:22.146Z,61.7
2018-11-11T11:12:12.472Z,61.8
2018-11-11T11:13:02.566Z,61.8
2018-11-11T11:13:52.921Z,61.9
2018-11-11T11:14:42.660Z,61.9
2018-11-11T11:15:32.156Z,61.9
2018-11-11T11:16:22.519Z,62
2018-11-11T11:17:12.566Z,62
2018-11-11T11:18:02.628Z,62.1
2018-11-11T11:18:52.393Z,62.1
2018-11-11T11:19:43.036Z,62.2
2018-11-11T11:20:32.803Z,62.2
2018-11-11T11:21:22.575Z,62.3
2018-11-11T11:22:13.208Z,62.3
2018-11-11T11:23:03.953Z,62.3
2018-11-11T11:23:52.763Z,62.3
2018-11-11T11:24:43.093Z,62.4
2018-11-11T11:25:33.207Z,62.4
2018-11-11T11:26:23.521Z,62.4
2018-11-11T11:27:13.801Z,62.4
2018-11-11T11:28:03.330Z,62.4
2018-11-11T11:28:53.931Z,62.4
2018-11-11T11:29:43.745Z,62.4
2018-11-11T11:30:33.762Z,62.5
2018-11-11T11:31:23.863Z,62.5
2018-11-11T11:32:14.224Z,62.6
2018-11-11T11:33:03.661Z,62.6
2018-11-11T11:33:53.783Z,62.6
2018-11-11T11:34:43.810Z,62.6
2018-11-11T11:35:34.415Z,62.6
2018-11-11T11:36:23.984Z,62.6
2018-11-11T11:37:14.286Z,62.7
2018-11-11T11:38:04.455Z,62.8
2018-11-11T11:38:54.119Z,62.8
2018-11-11T11:39:44.494Z,62.8
2018-11-11T11:40:34.267Z,62.8
2018-11-11T11:41:24.450Z,62.8
2018-11-11T11:42:14.662Z,62.9
2018-11-11T11:43:04.135Z,62.9
2018-11-11T11:43:54.645Z,62.9
2018-11-11T11:44:44.819Z,63
2018-11-11T11:45:34.601Z,63.1
2018-11-11T11:46:24.478Z,63.1
2018-11-11T11:47:15.153Z,63.1
2018-11-11T11:48:05.328Z,63.1
2018-11-11T11:48:54.963Z,63.2
2018-11-11T11:49:44.631Z,63.2
2018-11-11T11:50:34.879Z,63.2
2018-11-11T11:51:25.035Z,63.3
2018-11-11T11:52:15.330Z,63.3
2018-11-11T11:53:06.149Z,63.3
2018-11-11T11:53:55.489Z,63.3
2018-11-11T11:54:45.270Z,63.4
2018-11-11T11:55:35.329Z,63.4
2018-11-11T11:56:25.394Z,63.4
2018-11-11T11:57:15.448Z,63.4
2018-11-11T11:58:05.404Z,63.4
2018-11-11T11:58:55.297Z,63.4
2018-11-11T11:59:45.941Z,63.4
2018-11-11T12:00:35.498Z,63.5
2018-11-11T12:01:25.753Z,63.5
2018-11-11T12:02:16.004Z,63.5
2018-11-11T12:03:05.584Z,63.6
2018-11-11T12:03:55.658Z,63.6
2018-11-11T12:04:45.993Z,63.6
2018-11-11T12:05:36.045Z,63.6
2018-11-11T12:06:26.108Z,63.6
2018-11-11T12:07:16.487Z,63.6
2018-11-11T12:08:05.752Z,63.6
2018-11-11T12:08:56.761Z,63.6
2018-11-11T12:09:46.354Z,63.6
2018-11-11T12:10:36.033Z,63.7
2018-11-11T12:11:26.208Z,63.7
2018-11-11T12:12:16.347Z,63.7
2018-11-11T12:13:06.402Z,63.7
2018-11-11T12:13:56.934Z,63.7